sensor_id;sensor_type;location;lat;lon;timestamp;P1;durP1;ratioP1;P2;durP2;ratioP2
22425;SDS011;11380;50.822;15.790;2022-08-19T00:04:23;63.50;;;57.30;;
22425;SDS011;11380;50.822;15.790;2022-08-19T00:09:31;63.65;;;57.15;;
22425;SDS011;11380;50.822;15.790;2022-08-19T00:19:41;63.33;;;57.13;;
22425;SDS011;11380;50.822;15.790;2022-08-19T00:24:47;62.90;;;56.80;;
22425;SDS011;11380;50.822;15.790;2022-08-19T00:29:53;63.37;;;57.17;;
22425;SDS011;11380;50.822;15.790;2022-08-19T00:34:59;61.50;;;55.67;;
22425;SDS011;11380;50.822;15.790;2022-08-19T00:40:05;63.03;;;56.97;;
22425;SDS011;11380;50.822;15.790;2022-08-19T00:45:14;63.40;;;57.23;;
22425;SDS011;11380;50.822;15.790;2022-08-19T00:50:20;62.07;;;56.07;;
22425;SDS011;11380;50.822;15.790;2022-08-19T00:55:26;61.83;;;55.53;;
22425;SDS011;11380;50.822;15.790;2022-08-19T01:00:33;60.83;;;54.83;;
22425;SDS011;11380;50.822;15.790;2022-08-19T01:05:42;61.65;;;55.48;;
22425;SDS011;11380;50.822;15.790;2022-08-19T01:10:50;62.30;;;55.90;;
22425;SDS011;11380;50.822;15.790;2022-08-19T01:16:02;61.80;;;55.90;;
22425;SDS011;11380;50.822;15.790;2022-08-19T01:21:22;62.33;;;56.37;;
22425;SDS011;11380;50.822;15.790;2022-08-19T01:26:25;63.03;;;56.83;;
22425;SDS011;11380;50.822;15.790;2022-08-19T01:31:33;63.00;;;56.75;;
22425;SDS011;11380;50.822;15.790;2022-08-19T01:36:43;62.87;;;56.80;;
22425;SDS011;11380;50.822;15.790;2022-08-19T01:41:50;62.17;;;56.27;;
22425;SDS011;11380;50.822;15.790;2022-08-19T01:46:58;63.20;;;57.20;;
22425;SDS011;11380;50.822;15.790;2022-08-19T01:52:04;62.35;;;56.30;;
22425;SDS011;11380;50.822;15.790;2022-08-19T01:57:11;62.50;;;56.40;;
22425;SDS011;11380;50.822;15.790;2022-08-19T02:02:18;63.10;;;56.70;;
22425;SDS011;11380;50.822;15.790;2022-08-19T02:07:25;61.43;;;55.47;;
22425;SDS011;11380;50.822;15.790;2022-08-19T02:12:33;60.90;;;54.97;;
22425;SDS011;11380;50.822;15.790;2022-08-19T02:17:41;60.90;;;55.00;;
22425;SDS011;11380;50.822;15.790;2022-08-19T02:22:46;61.90;;;55.83;;
22425;SDS011;11380;50.822;15.790;2022-08-19T02:27:51;60.87;;;54.77;;
22425;SDS011;11380;50.822;15.790;2022-08-19T02:32:57;60.13;;;54.30;;
22425;SDS011;11380;50.822;15.790;2022-08-19T02:38:02;60.53;;;54.83;;
22425;SDS011;11380;50.822;15.790;2022-08-19T02:43:27;60.27;;;54.47;;
22425;SDS011;11380;50.822;15.790;2022-08-19T02:48:36;60.30;;;54.50;;
22425;SDS011;11380;50.822;15.790;2022-08-19T02:53:41;60.33;;;54.20;;
22425;SDS011;11380;50.822;15.790;2022-08-19T02:58:47;60.50;;;54.17;;
22425;SDS011;11380;50.822;15.790;2022-08-19T03:03:55;59.67;;;53.87;;
22425;SDS011;11380;50.822;15.790;2022-08-19T03:09:03;57.70;;;52.00;;
22425;SDS011;11380;50.822;15.790;2022-08-19T03:14:09;58.86;;;52.92;;
22425;SDS011;11380;50.822;15.790;2022-08-19T03:19:17;57.75;;;52.25;;
22425;SDS011;11380;50.822;15.790;2022-08-19T03:24:25;57.87;;;52.33;;
22425;SDS011;11380;50.822;15.790;2022-08-19T03:29:30;57.23;;;51.85;;
22425;SDS011;11380;50.822;15.790;2022-08-19T03:34:38;57.83;;;52.20;;
22425;SDS011;11380;50.822;15.790;2022-08-19T03:39:44;57.58;;;51.95;;
22425;SDS011;11380;50.822;15.790;2022-08-19T03:44:50;57.25;;;51.83;;
22425;SDS011;11380;50.822;15.790;2022-08-19T03:49:56;57.70;;;52.20;;
22425;SDS011;11380;50.822;15.790;2022-08-19T03:55:03;57.55;;;52.15;;
22425;SDS011;11380;50.822;15.790;2022-08-19T04:00:09;58.47;;;52.77;;
22425;SDS011;11380;50.822;15.790;2022-08-19T04:05:16;60.23;;;54.43;;
22425;SDS011;11380;50.822;15.790;2022-08-19T04:10:24;58.90;;;52.83;;
22425;SDS011;11380;50.822;15.790;2022-08-19T04:15:29;58.78;;;52.90;;
22425;SDS011;11380;50.822;15.790;2022-08-19T04:20:46;59.50;;;53.80;;
22425;SDS011;11380;50.822;15.790;2022-08-19T04:30:57;58.40;;;52.70;;
22425;SDS011;11380;50.822;15.790;2022-08-19T04:36:02;58.23;;;52.80;;
22425;SDS011;11380;50.822;15.790;2022-08-19T04:41:08;59.07;;;53.47;;
22425;SDS011;11380;50.822;15.790;2022-08-19T04:46:32;59.00;;;53.30;;
22425;SDS011;11380;50.822;15.790;2022-08-19T04:51:42;58.70;;;52.83;;
22425;SDS011;11380;50.822;15.790;2022-08-19T04:56:49;58.53;;;52.50;;
22425;SDS011;11380;50.822;15.790;2022-08-19T05:01:56;57.90;;;52.40;;
22425;SDS011;11380;50.822;15.790;2022-08-19T05:07:01;57.90;;;52.30;;
22425;SDS011;11380;50.822;15.790;2022-08-19T05:12:06;61.67;;;55.47;;
22425;SDS011;11380;50.822;15.790;2022-08-19T05:17:13;60.40;;;54.00;;
22425;SDS011;11380;50.822;15.790;2022-08-19T05:22:20;59.93;;;54.13;;
22425;SDS011;11380;50.822;15.790;2022-08-19T05:27:41;61.20;;;54.65;;
22425;SDS011;11380;50.822;15.790;2022-08-19T05:32:47;60.00;;;54.20;;
22425;SDS011;11380;50.822;15.790;2022-08-19T05:37:54;58.78;;;53.13;;
22425;SDS011;11380;50.822;15.790;2022-08-19T05:43:03;59.03;;;53.47;;
22425;SDS011;11380;50.822;15.790;2022-08-19T05:48:10;59.23;;;53.60;;
22425;SDS011;11380;50.822;15.790;2022-08-19T05:53:17;59.90;;;53.63;;
22425;SDS011;11380;50.822;15.790;2022-08-19T05:58:23;59.88;;;54.08;;
22425;SDS011;11380;50.822;15.790;2022-08-19T06:03:36;66.80;;;60.00;;
22425;SDS011;11380;50.822;15.790;2022-08-19T06:08:38;66.75;;;60.00;;
22425;SDS011;11380;50.822;15.790;2022-08-19T06:13:47;62.97;;;56.60;;
22425;SDS011;11380;50.822;15.790;2022-08-19T06:18:58;61.80;;;55.23;;
22425;SDS011;11380;50.822;15.790;2022-08-19T06:24:06;60.53;;;54.70;;
22425;SDS011;11380;50.822;15.790;2022-08-19T06:29:15;79.87;;;57.90;;
22425;SDS011;11380;50.822;15.790;2022-08-19T06:34:23;60.37;;;54.47;;
22425;SDS011;11380;50.822;15.790;2022-08-19T06:39:34;59.97;;;54.17;;
22425;SDS011;11380;50.822;15.790;2022-08-19T06:44:40;59.70;;;53.90;;
22425;SDS011;11380;50.822;15.790;2022-08-19T06:49:49;60.10;;;54.30;;
22425;SDS011;11380;50.822;15.790;2022-08-19T06:54:58;59.30;;;53.60;;
22425;SDS011;11380;50.822;15.790;2022-08-19T07:00:06;60.48;;;54.50;;
22425;SDS011;11380;50.822;15.790;2022-08-19T07:05:17;62.30;;;56.05;;
22425;SDS011;11380;50.822;15.790;2022-08-19T07:10:23;61.15;;;55.10;;
22425;SDS011;11380;50.822;15.790;2022-08-19T07:15:29;60.00;;;54.10;;
22425;SDS011;11380;50.822;15.790;2022-08-19T07:25:42;61.37;;;55.05;;
22425;SDS011;11380;50.822;15.790;2022-08-19T07:30:49;61.23;;;55.13;;
22425;SDS011;11380;50.822;15.790;2022-08-19T07:35:55;62.60;;;56.40;;
22425;SDS011;11380;50.822;15.790;2022-08-19T07:41:00;63.58;;;56.20;;
22425;SDS011;11380;50.822;15.790;2022-08-19T07:46:06;61.70;;;55.50;;
22425;SDS011;11380;50.822;15.790;2022-08-19T07:51:15;62.03;;;55.95;;
22425;SDS011;11380;50.822;15.790;2022-08-19T07:56:24;61.40;;;55.50;;
22425;SDS011;11380;50.822;15.790;2022-08-19T08:01:31;61.10;;;55.10;;
22425;SDS011;11380;50.822;15.790;2022-08-19T08:06:38;62.10;;;55.83;;
22425;SDS011;11380;50.822;15.790;2022-08-19T08:12:04;63.00;;;56.45;;
22425;SDS011;11380;50.822;15.790;2022-08-19T08:17:16;62.10;;;56.00;;
22425;SDS011;11380;50.822;15.790;2022-08-19T08:22:25;62.67;;;56.57;;
22425;SDS011;11380;50.822;15.790;2022-08-19T08:27:50;72.03;;;56.42;;
22425;SDS011;11380;50.822;15.790;2022-08-19T08:32:58;62.67;;;56.53;;
22425;SDS011;11380;50.822;15.790;2022-08-19T08:38:05;70.50;;;59.60;;
22425;SDS011;11380;50.822;15.790;2022-08-19T08:43:23;64.70;;;58.00;;
22425;SDS011;11380;50.822;15.790;2022-08-19T08:53:52;62.67;;;56.40;;
22425;SDS011;11380;50.822;15.790;2022-08-19T08:59:02;63.20;;;57.10;;
22425;SDS011;11380;50.822;15.790;2022-08-19T09:04:09;64.67;;;58.42;;
22425;SDS011;11380;50.822;15.790;2022-08-19T09:09:18;65.17;;;58.37;;
22425;SDS011;11380;50.822;15.790;2022-08-19T09:20:00;65.10;;;58.70;;
22425;SDS011;11380;50.822;15.790;2022-08-19T09:25:06;65.15;;;58.75;;
22425;SDS011;11380;50.822;15.790;2022-08-19T09:30:16;66.20;;;59.57;;
22425;SDS011;11380;50.822;15.790;2022-08-19T09:35:26;65.33;;;58.57;;
22425;SDS011;11380;50.822;15.790;2022-08-19T09:40:33;65.17;;;58.53;;
22425;SDS011;11380;50.822;15.790;2022-08-19T09:45:41;67.03;;;60.10;;
22425;SDS011;11380;50.822;15.790;2022-08-19T09:50:47;66.97;;;60.17;;
22425;SDS011;11380;50.822;15.790;2022-08-19T09:55:55;65.17;;;58.70;;
22425;SDS011;11380;50.822;15.790;2022-08-19T10:01:00;65.40;;;59.00;;
22425;SDS011;11380;50.822;15.790;2022-08-19T10:06:08;66.23;;;59.20;;
22425;SDS011;11380;50.822;15.790;2022-08-19T10:11:14;66.40;;;59.50;;
22425;SDS011;11380;50.822;15.790;2022-08-19T10:16:22;66.43;;;59.00;;
22425;SDS011;11380;50.822;15.790;2022-08-19T10:21:31;65.40;;;58.80;;
22425;SDS011;11380;50.822;15.790;2022-08-19T10:26:39;66.67;;;59.93;;
22425;SDS011;11380;50.822;15.790;2022-08-19T10:31:50;66.60;;;59.70;;
22425;SDS011;11380;50.822;15.790;2022-08-19T10:36:59;66.90;;;60.20;;
22425;SDS011;11380;50.822;15.790;2022-08-19T10:42:05;65.97;;;59.47;;
22425;SDS011;11380;50.822;15.790;2022-08-19T10:47:13;67.87;;;61.10;;
22425;SDS011;11380;50.822;15.790;2022-08-19T10:52:21;68.33;;;61.20;;
22425;SDS011;11380;50.822;15.790;2022-08-19T10:57:41;68.50;;;61.70;;
22425;SDS011;11380;50.822;15.790;2022-08-19T11:02:49;68.83;;;61.57;;
22425;SDS011;11380;50.822;15.790;2022-08-19T11:07:55;69.47;;;62.17;;
22425;SDS011;11380;50.822;15.790;2022-08-19T11:13:02;67.80;;;60.90;;
22425;SDS011;11380;50.822;15.790;2022-08-19T11:18:07;66.97;;;60.25;;
22425;SDS011;11380;50.822;15.790;2022-08-19T11:23:15;67.73;;;60.83;;
22425;SDS011;11380;50.822;15.790;2022-08-19T11:28:21;67.37;;;60.77;;
22425;SDS011;11380;50.822;15.790;2022-08-19T11:33:26;68.40;;;61.50;;
22425;SDS011;11380;50.822;15.790;2022-08-19T11:38:33;69.00;;;62.20;;
22425;SDS011;11380;50.822;15.790;2022-08-19T11:43:39;67.17;;;60.37;;
22425;SDS011;11380;50.822;15.790;2022-08-19T11:48:45;67.90;;;61.30;;
22425;SDS011;11380;50.822;15.790;2022-08-19T11:53:52;67.47;;;60.57;;
22425;SDS011;11380;50.822;15.790;2022-08-19T11:58:58;65.97;;;59.53;;
22425;SDS011;11380;50.822;15.790;2022-08-19T12:04:05;67.00;;;60.25;;
22425;SDS011;11380;50.822;15.790;2022-08-19T12:09:11;63.40;;;57.23;;
22425;SDS011;11380;50.822;15.790;2022-08-19T12:14:18;63.05;;;56.90;;
22425;SDS011;11380;50.822;15.790;2022-08-19T12:19:23;64.30;;;57.93;;
22425;SDS011;11380;50.822;15.790;2022-08-19T12:24:32;62.27;;;56.00;;
22425;SDS011;11380;50.822;15.790;2022-08-19T12:29:38;60.23;;;54.43;;
22425;SDS011;11380;50.822;15.790;2022-08-19T12:34:43;60.85;;;54.93;;
22425;SDS011;11380;50.822;15.790;2022-08-19T12:39:50;59.75;;;53.75;;
22425;SDS011;11380;50.822;15.790;2022-08-19T12:44:55;59.73;;;53.87;;
22425;SDS011;11380;50.822;15.790;2022-08-19T12:50:00;60.77;;;54.87;;
22425;SDS011;11380;50.822;15.790;2022-08-19T12:55:08;63.70;;;57.15;;
22425;SDS011;11380;50.822;15.790;2022-08-19T13:00:15;69.30;;;62.03;;
22425;SDS011;11380;50.822;15.790;2022-08-19T13:05:26;69.50;;;62.33;;
22425;SDS011;11380;50.822;15.790;2022-08-19T13:10:35;70.73;;;63.53;;
22425;SDS011;11380;50.822;15.790;2022-08-19T13:15:42;70.37;;;63.43;;
22425;SDS011;11380;50.822;15.790;2022-08-19T13:20:48;70.00;;;63.10;;
22425;SDS011;11380;50.822;15.790;2022-08-19T13:25:56;70.40;;;63.20;;
22425;SDS011;11380;50.822;15.790;2022-08-19T13:31:03;82.03;;;73.43;;
22425;SDS011;11380;50.822;15.790;2022-08-19T13:36:26;74.50;;;66.87;;
22425;SDS011;11380;50.822;15.790;2022-08-19T13:41:32;71.17;;;63.87;;
22425;SDS011;11380;50.822;15.790;2022-08-19T13:46:37;73.60;;;65.87;;
22425;SDS011;11380;50.822;15.790;2022-08-19T13:51:43;68.57;;;61.77;;
22425;SDS011;11380;50.822;15.790;2022-08-19T13:56:49;70.23;;;63.27;;
22425;SDS011;11380;50.822;15.790;2022-08-19T14:01:57;69.17;;;62.07;;
22425;SDS011;11380;50.822;15.790;2022-08-19T14:07:04;69.97;;;62.83;;
22425;SDS011;11380;50.822;15.790;2022-08-19T14:12:10;69.23;;;62.23;;
22425;SDS011;11380;50.822;15.790;2022-08-19T14:17:16;69.00;;;62.07;;
22425;SDS011;11380;50.822;15.790;2022-08-19T14:22:21;69.50;;;62.47;;
22425;SDS011;11380;50.822;15.790;2022-08-19T14:27:27;68.83;;;61.97;;
22425;SDS011;11380;50.822;15.790;2022-08-19T14:32:33;69.67;;;62.80;;
22425;SDS011;11380;50.822;15.790;2022-08-19T14:37:39;68.83;;;61.93;;
22425;SDS011;11380;50.822;15.790;2022-08-19T14:42:46;69.10;;;62.10;;
22425;SDS011;11380;50.822;15.790;2022-08-19T14:47:52;69.10;;;62.10;;
22425;SDS011;11380;50.822;15.790;2022-08-19T14:53:06;69.27;;;62.33;;
22425;SDS011;11380;50.822;15.790;2022-08-19T14:58:10;69.57;;;62.47;;
22425;SDS011;11380;50.822;15.790;2022-08-19T15:03:18;68.22;;;61.45;;
22425;SDS011;11380;50.822;15.790;2022-08-19T15:08:25;67.90;;;60.97;;
22425;SDS011;11380;50.822;15.790;2022-08-19T15:13:31;68.13;;;61.33;;
22425;SDS011;11380;50.822;15.790;2022-08-19T15:18:37;68.43;;;61.70;;
22425;SDS011;11380;50.822;15.790;2022-08-19T15:28:49;69.10;;;61.68;;
22425;SDS011;11380;50.822;15.790;2022-08-19T15:33:55;67.33;;;60.57;;
22425;SDS011;11380;50.822;15.790;2022-08-19T15:39:02;67.10;;;60.40;;
22425;SDS011;11380;50.822;15.790;2022-08-19T15:44:10;67.30;;;60.25;;
22425;SDS011;11380;50.822;15.790;2022-08-19T15:49:18;67.53;;;60.75;;
22425;SDS011;11380;50.822;15.790;2022-08-19T15:54:24;67.83;;;61.10;;
22425;SDS011;11380;50.822;15.790;2022-08-19T15:59:29;66.75;;;59.65;;
22425;SDS011;11380;50.822;15.790;2022-08-19T16:04:57;70.37;;;63.27;;
22425;SDS011;11380;50.822;15.790;2022-08-19T16:10:17;66.73;;;60.13;;
22425;SDS011;11380;50.822;15.790;2022-08-19T16:15:25;67.65;;;60.48;;
22425;SDS011;11380;50.822;15.790;2022-08-19T16:20:33;71.15;;;63.80;;
22425;SDS011;11380;50.822;15.790;2022-08-19T16:30:43;69.53;;;62.58;;
22425;SDS011;11380;50.822;15.790;2022-08-19T16:35:50;66.73;;;60.10;;
22425;SDS011;11380;50.822;15.790;2022-08-19T16:40:58;67.23;;;60.63;;
22425;SDS011;11380;50.822;15.790;2022-08-19T16:46:04;66.13;;;59.43;;
22425;SDS011;11380;50.822;15.790;2022-08-19T16:51:09;66.65;;;59.75;;
22425;SDS011;11380;50.822;15.790;2022-08-19T16:56:16;65.23;;;58.60;;
22425;SDS011;11380;50.822;15.790;2022-08-19T17:01:22;65.50;;;59.07;;
22425;SDS011;11380;50.822;15.790;2022-08-19T17:06:29;64.85;;;58.20;;
22425;SDS011;11380;50.822;15.790;2022-08-19T17:11:35;63.63;;;57.33;;
22425;SDS011;11380;50.822;15.790;2022-08-19T17:16:41;64.40;;;58.00;;
22425;SDS011;11380;50.822;15.790;2022-08-19T17:21:47;64.82;;;58.33;;
22425;SDS011;11380;50.822;15.790;2022-08-19T17:26:52;63.60;;;57.40;;
22425;SDS011;11380;50.822;15.790;2022-08-19T17:31:59;65.73;;;59.23;;
22425;SDS011;11380;50.822;15.790;2022-08-19T17:37:04;63.80;;;57.45;;
22425;SDS011;11380;50.822;15.790;2022-08-19T17:42:10;64.25;;;57.75;;
22425;SDS011;11380;50.822;15.790;2022-08-19T17:47:16;66.07;;;59.47;;
22425;SDS011;11380;50.822;15.790;2022-08-19T17:52:22;64.70;;;58.17;;
22425;SDS011;11380;50.822;15.790;2022-08-19T17:57:28;64.73;;;58.23;;
22425;SDS011;11380;50.822;15.790;2022-08-19T18:02:39;65.55;;;58.85;;
22425;SDS011;11380;50.822;15.790;2022-08-19T18:07:48;65.27;;;58.83;;
22425;SDS011;11380;50.822;15.790;2022-08-19T18:12:56;64.20;;;57.90;;
22425;SDS011;11380;50.822;15.790;2022-08-19T18:18:07;64.43;;;58.13;;
22425;SDS011;11380;50.822;15.790;2022-08-19T18:23:15;64.57;;;58.17;;
22425;SDS011;11380;50.822;15.790;2022-08-19T18:28:23;65.47;;;58.67;;
22425;SDS011;11380;50.822;15.790;2022-08-19T18:33:28;64.60;;;58.17;;
22425;SDS011;11380;50.822;15.790;2022-08-19T18:38:34;65.42;;;58.73;;
22425;SDS011;11380;50.822;15.790;2022-08-19T18:43:57;64.73;;;58.33;;
22425;SDS011;11380;50.822;15.790;2022-08-19T18:49:25;64.17;;;57.73;;
22425;SDS011;11380;50.822;15.790;2022-08-19T18:54:32;63.90;;;57.50;;
22425;SDS011;11380;50.822;15.790;2022-08-19T18:59:40;64.30;;;58.03;;
22425;SDS011;11380;50.822;15.790;2022-08-19T19:04:46;64.90;;;58.50;;
22425;SDS011;11380;50.822;15.790;2022-08-19T19:09:51;64.53;;;58.13;;
22425;SDS011;11380;50.822;15.790;2022-08-19T19:14:58;64.83;;;58.43;;
22425;SDS011;11380;50.822;15.790;2022-08-19T19:20:06;63.73;;;57.40;;
22425;SDS011;11380;50.822;15.790;2022-08-19T19:25:12;65.17;;;58.57;;
22425;SDS011;11380;50.822;15.790;2022-08-19T19:30:18;64.32;;;57.98;;
22425;SDS011;11380;50.822;15.790;2022-08-19T19:35:26;64.77;;;58.02;;
22425;SDS011;11380;50.822;15.790;2022-08-19T19:40:33;63.23;;;57.10;;
22425;SDS011;11380;50.822;15.790;2022-08-19T19:45:38;65.60;;;58.77;;
22425;SDS011;11380;50.822;15.790;2022-08-19T19:50:43;64.70;;;58.33;;
22425;SDS011;11380;50.822;15.790;2022-08-19T19:55:51;64.65;;;58.15;;
22425;SDS011;11380;50.822;15.790;2022-08-19T20:01:02;65.63;;;59.17;;
22425;SDS011;11380;50.822;15.790;2022-08-19T20:06:12;65.73;;;59.03;;
22425;SDS011;11380;50.822;15.790;2022-08-19T20:11:27;66.50;;;59.97;;
22425;SDS011;11380;50.822;15.790;2022-08-19T20:16:40;65.97;;;59.40;;
22425;SDS011;11380;50.822;15.790;2022-08-19T20:21:50;65.50;;;59.00;;
22425;SDS011;11380;50.822;15.790;2022-08-19T20:26:58;67.83;;;60.63;;
22425;SDS011;11380;50.822;15.790;2022-08-19T20:32:05;69.30;;;62.10;;
22425;SDS011;11380;50.822;15.790;2022-08-19T20:37:12;71.83;;;64.13;;
22425;SDS011;11380;50.822;15.790;2022-08-19T20:47:22;67.70;;;60.53;;
22425;SDS011;11380;50.822;15.790;2022-08-19T20:52:27;69.93;;;62.40;;
22425;SDS011;11380;50.822;15.790;2022-08-19T20:57:33;70.70;;;62.98;;
22425;SDS011;11380;50.822;15.790;2022-08-19T21:02:39;70.67;;;63.03;;
22425;SDS011;11380;50.822;15.790;2022-08-19T21:07:45;69.70;;;62.17;;
22425;SDS011;11380;50.822;15.790;2022-08-19T21:12:52;68.87;;;62.00;;
22425;SDS011;11380;50.822;15.790;2022-08-19T21:17:57;71.00;;;63.80;;
22425;SDS011;11380;50.822;15.790;2022-08-19T21:23:04;70.13;;;62.97;;
22425;SDS011;11380;50.822;15.790;2022-08-19T21:28:12;72.00;;;64.70;;
22425;SDS011;11380;50.822;15.790;2022-08-19T21:33:19;70.73;;;63.20;;
22425;SDS011;11380;50.822;15.790;2022-08-19T21:38:26;67.13;;;60.33;;
22425;SDS011;11380;50.822;15.790;2022-08-19T21:43:32;67.83;;;61.13;;
22425;SDS011;11380;50.822;15.790;2022-08-19T21:48:40;67.87;;;61.05;;
22425;SDS011;11380;50.822;15.790;2022-08-19T21:53:45;68.80;;;61.90;;
22425;SDS011;11380;50.822;15.790;2022-08-19T21:58:53;68.47;;;61.27;;
22425;SDS011;11380;50.822;15.790;2022-08-19T22:04:00;67.20;;;60.40;;
22425;SDS011;11380;50.822;15.790;2022-08-19T22:09:05;66.97;;;60.03;;
22425;SDS011;11380;50.822;15.790;2022-08-19T22:14:13;67.10;;;60.20;;
22425;SDS011;11380;50.822;15.790;2022-08-19T22:19:20;67.17;;;60.12;;
22425;SDS011;11380;50.822;15.790;2022-08-19T22:24:27;71.47;;;64.07;;
22425;SDS011;11380;50.822;15.790;2022-08-19T22:29:35;68.10;;;61.03;;
22425;SDS011;11380;50.822;15.790;2022-08-19T22:34:42;69.00;;;61.77;;
22425;SDS011;11380;50.822;15.790;2022-08-19T22:39:48;68.70;;;61.85;;
22425;SDS011;11380;50.822;15.790;2022-08-19T22:44:55;70.50;;;63.20;;
22425;SDS011;11380;50.822;15.790;2022-08-19T22:50:03;67.90;;;60.73;;
22425;SDS011;11380;50.822;15.790;2022-08-19T22:55:11;68.73;;;61.63;;
22425;SDS011;11380;50.822;15.790;2022-08-19T23:00:18;67.97;;;61.07;;
22425;SDS011;11380;50.822;15.790;2022-08-19T23:05:26;68.33;;;61.27;;
22425;SDS011;11380;50.822;15.790;2022-08-19T23:10:34;68.43;;;61.23;;
22425;SDS011;11380;50.822;15.790;2022-08-19T23:20:44;67.17;;;60.38;;
22425;SDS011;11380;50.822;15.790;2022-08-19T23:25:51;69.35;;;62.17;;
22425;SDS011;11380;50.822;15.790;2022-08-19T23:30:58;69.37;;;62.27;;
22425;SDS011;11380;50.822;15.790;2022-08-19T23:36:07;69.70;;;62.63;;
22425;SDS011;11380;50.822;15.790;2022-08-19T23:41:18;72.70;;;65.12;;
22425;SDS011;11380;50.822;15.790;2022-08-19T23:46:25;72.43;;;64.83;;
22425;SDS011;11380;50.822;15.790;2022-08-19T23:51:32;75.47;;;67.57;;
22425;SDS011;11380;50.822;15.790;2022-08-19T23:56:37;73.50;;;65.83;;
